createdAt,value
2023-03-22T00:00:07.501Z,3.81
2023-03-22T00:00:17.548Z,3.80
2023-03-22T00:00:27.497Z,3.81
2023-03-22T00:00:37.726Z,3.81
2023-03-22T00:00:47.494Z,3.82
2023-03-22T00:00:57.503Z,3.81
2023-03-22T00:01:07.498Z,3.83
2023-03-22T00:01:17.534Z,3.80
2023-03-22T00:01:27.501Z,3.80
2023-03-22T00:01:37.507Z,3.81
2023-03-22T00:01:47.508Z,3.80
2023-03-22T00:01:57.521Z,3.80
2023-03-22T00:02:07.524Z,3.80
2023-03-22T00:02:17.580Z,3.82
2023-03-22T00:02:27.568Z,3.82
2023-03-22T00:02:37.575Z,3.83
2023-03-22T00:02:47.586Z,3.83
2023-03-22T00:02:57.560Z,3.83
2023-03-22T00:03:07.503Z,3.83
2023-03-22T00:03:17.533Z,3.80
2023-03-22T00:03:27.596Z,3.83
2023-03-22T00:03:37.537Z,3.83
2023-03-22T00:03:47.730Z,3.83
2023-03-22T00:03:57.585Z,3.84
2023-03-22T00:04:07.547Z,3.83
2023-03-22T00:04:17.520Z,3.82
2023-03-22T00:04:27.510Z,3.82
2023-03-22T00:04:37.515Z,3.82
2023-03-22T00:04:47.509Z,3.81
2023-03-22T00:04:57.517Z,3.82
2023-03-22T00:05:07.514Z,3.83
2023-03-22T00:05:17.518Z,3.82
2023-03-22T00:05:27.516Z,3.84
2023-03-22T00:05:37.519Z,3.83
2023-03-22T00:05:47.526Z,3.82
2023-03-22T00:05:57.519Z,3.83
2023-03-22T00:06:07.523Z,3.83
2023-03-22T00:06:17.540Z,3.83
2023-03-22T00:06:27.517Z,3.83
2023-03-22T00:06:37.520Z,3.83
2023-03-22T00:06:47.563Z,3.81
2023-03-22T00:06:57.549Z,3.82
2023-03-22T00:07:07.521Z,3.81
2023-03-22T00:07:17.523Z,3.81
2023-03-22T00:07:27.556Z,3.81
2023-03-22T00:07:37.528Z,3.79
2023-03-22T00:07:47.526Z,3.81
2023-03-22T00:07:57.532Z,3.81
2023-03-22T00:08:07.544Z,3.81
2023-03-22T00:08:17.533Z,3.80
2023-03-22T00:08:27.544Z,3.80
2023-03-22T00:08:37.525Z,3.80
2023-03-22T00:08:47.534Z,3.78
2023-03-22T00:08:57.522Z,3.80
2023-03-22T00:09:07.554Z,3.79
2023-03-22T00:09:17.532Z,3.81
2023-03-22T00:09:27.569Z,3.79
2023-03-22T00:09:37.537Z,3.80
2023-03-22T00:09:47.538Z,3.78
2023-03-22T00:09:57.533Z,3.78
2023-03-22T00:10:07.562Z,3.78
2023-03-22T00:10:17.534Z,3.79
2023-03-22T00:10:27.555Z,3.78
2023-03-22T00:10:37.846Z,3.81
2023-03-22T00:10:47.540Z,3.79
2023-03-22T00:10:57.537Z,3.78
2023-03-22T00:11:07.523Z,3.79
2023-03-22T00:11:17.548Z,3.80
2023-03-22T00:11:27.543Z,3.82
2023-03-22T00:11:37.542Z,3.80
2023-03-22T00:11:47.552Z,3.80
2023-03-22T00:11:57.552Z,3.82
2023-03-22T00:12:07.565Z,3.80
2023-03-22T00:12:17.541Z,3.80
2023-03-22T00:12:27.580Z,3.81
2023-03-22T00:12:37.542Z,3.79
2023-03-22T00:12:47.550Z,3.78
2023-03-22T00:12:57.540Z,3.78
2023-03-22T00:13:07.565Z,3.78
2023-03-22T00:13:17.547Z,3.78
2023-03-22T00:13:27.560Z,3.81
2023-03-22T00:13:37.574Z,3.78
2023-03-22T00:13:47.551Z,3.79
2023-03-22T00:13:57.554Z,3.79
2023-03-22T00:14:07.556Z,3.78
2023-03-22T00:14:17.548Z,3.78
2023-03-22T00:14:27.552Z,3.78
2023-03-22T00:14:37.558Z,3.78
2023-03-22T00:14:47.550Z,3.79
2023-03-22T00:14:57.547Z,3.78
2023-03-22T00:15:07.546Z,3.79
2023-03-22T00:15:17.552Z,3.78
2023-03-22T00:15:27.550Z,3.77
2023-03-22T00:15:37.549Z,3.79
2023-03-22T00:15:47.555Z,3.79
2023-03-22T00:15:57.613Z,3.79
2023-03-22T00:16:07.756Z,3.77
2023-03-22T00:16:17.670Z,3.79
2023-03-22T00:16:27.661Z,3.79
2023-03-22T00:16:37.560Z,3.79
2023-03-22T00:16:47.561Z,3.79
2023-03-22T00:16:57.564Z,3.78
2023-03-22T00:17:07.582Z,3.78
2023-03-22T00:17:17.564Z,3.78
2023-03-22T00:17:27.570Z,3.77
2023-03-22T00:17:37.595Z,3.78
2023-03-22T00:17:47.560Z,3.78
2023-03-22T00:17:57.566Z,3.77
2023-03-22T00:18:07.564Z,3.77
2023-03-22T00:18:17.577Z,3.78
2023-03-22T00:18:27.576Z,3.77
2023-03-22T00:18:37.573Z,3.77
2023-03-22T00:18:47.586Z,3.75
2023-03-22T00:18:57.572Z,3.77
2023-03-22T00:19:07.580Z,3.76
2023-03-22T00:19:17.630Z,3.77
2023-03-22T00:19:27.585Z,3.77
2023-03-22T00:19:37.587Z,3.78
2023-03-22T00:19:47.595Z,3.78
2023-03-22T00:19:57.573Z,3.77
2023-03-22T00:20:07.572Z,3.78
2023-03-22T00:20:20.240Z,3.78
2023-03-22T00:20:27.578Z,3.76
2023-03-22T00:20:38.007Z,3.77
2023-03-22T00:20:47.580Z,3.76
2023-03-22T00:20:57.582Z,3.76
2023-03-22T00:21:07.574Z,3.76
2023-03-22T00:21:17.599Z,3.76
2023-03-22T00:21:27.576Z,3.76
2023-03-22T00:21:37.638Z,3.76
2023-03-22T00:21:47.582Z,3.77
2023-03-22T00:21:57.584Z,3.78
2023-03-22T00:22:07.601Z,3.80
2023-03-22T00:22:17.582Z,3.76
2023-03-22T00:22:27.604Z,3.78
2023-03-22T00:22:37.580Z,3.79
2023-03-22T00:22:47.588Z,3.77
2023-03-22T00:22:57.582Z,3.78
2023-03-22T00:23:07.585Z,3.78
2023-03-22T00:23:17.593Z,3.78
2023-03-22T00:23:27.599Z,3.78
2023-03-22T00:23:37.590Z,3.79
2023-03-22T00:23:47.604Z,3.78
2023-03-22T00:23:57.587Z,3.79
2023-03-22T00:24:07.599Z,3.79
2023-03-22T00:24:17.588Z,3.79
2023-03-22T00:24:27.589Z,3.77
2023-03-22T00:24:37.593Z,3.78
2023-03-22T00:24:47.627Z,3.77
2023-03-22T00:24:57.582Z,3.79
2023-03-22T00:25:07.603Z,3.80
2023-03-22T00:25:17.620Z,3.77
2023-03-22T00:25:27.602Z,3.78
2023-03-22T00:25:37.601Z,3.79
2023-03-22T00:25:47.606Z,3.77
2023-03-22T00:25:57.601Z,3.80
2023-03-22T00:26:07.629Z,3.77
2023-03-22T00:26:17.603Z,3.77
2023-03-22T00:26:27.609Z,3.77
2023-03-22T00:26:37.612Z,3.76
2023-03-22T00:26:47.604Z,3.77
2023-03-22T00:26:57.606Z,3.76
2023-03-22T00:27:07.620Z,3.77
2023-03-22T00:27:17.603Z,3.80
2023-03-22T00:27:27.632Z,3.78
2023-03-22T00:27:37.610Z,3.78
2023-03-22T00:27:47.615Z,3.78
2023-03-22T00:27:57.630Z,3.80
2023-03-22T00:28:07.617Z,3.78
2023-03-22T00:28:17.615Z,3.78
2023-03-22T00:28:27.651Z,3.79
2023-03-22T00:28:37.627Z,3.80
2023-03-22T00:28:47.616Z,3.81
2023-03-22T00:28:57.618Z,3.80
2023-03-22T00:29:07.611Z,3.81
2023-03-22T00:29:17.615Z,3.80
2023-03-22T00:29:27.622Z,3.80
2023-03-22T00:29:37.634Z,3.81
2023-03-22T00:29:47.637Z,3.80
2023-03-22T00:29:57.624Z,3.81
2023-03-22T00:30:07.621Z,3.81
2023-03-22T00:30:17.621Z,3.81
2023-03-22T00:30:27.632Z,3.79
2023-03-22T00:30:37.886Z,3.78
2023-03-22T00:30:47.623Z,3.79
2023-03-22T00:30:57.633Z,3.78
2023-03-22T00:31:07.677Z,3.78
2023-03-22T00:31:17.654Z,3.78
2023-03-22T00:31:27.656Z,3.79
2023-03-22T00:31:37.669Z,3.77
2023-03-22T00:31:47.689Z,3.77
2023-03-22T00:31:57.638Z,3.77
2023-03-22T00:32:07.652Z,3.77
2023-03-22T00:32:17.629Z,3.79
2023-03-22T00:32:27.629Z,3.78
2023-03-22T00:32:37.641Z,3.77
2023-03-22T00:32:47.637Z,3.78
2023-03-22T00:32:57.658Z,3.77
2023-03-22T00:33:07.632Z,3.77
2023-03-22T00:33:17.638Z,3.78
2023-03-22T00:33:27.636Z,3.78
2023-03-22T00:33:37.633Z,3.78
2023-03-22T00:33:47.634Z,3.78
2023-03-22T00:33:57.637Z,3.79
2023-03-22T00:34:07.633Z,3.78
2023-03-22T00:34:17.649Z,3.78
2023-03-22T00:34:27.653Z,3.78
2023-03-22T00:34:37.642Z,3.77
2023-03-22T00:34:47.639Z,3.78
2023-03-22T00:34:57.642Z,3.78
2023-03-22T00:35:07.644Z,3.79
2023-03-22T00:35:17.662Z,3.79
2023-03-22T00:35:27.675Z,3.79
2023-03-22T00:35:37.678Z,3.80
2023-03-22T00:35:47.730Z,3.78
2023-03-22T00:35:57.691Z,3.79
2023-03-22T00:36:07.656Z,3.77
2023-03-22T00:36:17.645Z,3.78
2023-03-22T00:36:27.647Z,3.77
2023-03-22T00:36:37.652Z,3.79
2023-03-22T00:36:47.650Z,3.78
2023-03-22T00:36:57.648Z,3.79
2023-03-22T00:37:07.666Z,3.77
2023-03-22T00:37:17.653Z,3.80
2023-03-22T00:37:27.650Z,3.80
2023-03-22T00:37:37.672Z,3.79
2023-03-22T00:37:47.658Z,3.81
2023-03-22T00:37:57.652Z,3.79
2023-03-22T00:38:07.656Z,3.79
2023-03-22T00:38:17.655Z,3.78
2023-03-22T00:38:41.425Z,3.80
2023-03-22T00:38:42.520Z,3.77
2023-03-22T00:38:47.705Z,3.77
2023-03-22T00:38:57.655Z,3.77
2023-03-22T00:39:07.659Z,3.77
2023-03-22T00:39:17.658Z,3.76
2023-03-22T00:39:27.665Z,3.78
2023-03-22T00:39:37.667Z,3.79
2023-03-22T00:39:47.678Z,3.80
2023-03-22T00:39:57.663Z,3.78
2023-03-22T00:40:07.692Z,3.78
2023-03-22T00:40:18.409Z,3.80
2023-03-22T00:40:27.669Z,3.79
2023-03-22T00:40:38.050Z,3.80
2023-03-22T00:40:47.679Z,3.80
2023-03-22T00:40:57.669Z,3.79
2023-03-22T00:41:07.675Z,3.80
2023-03-22T00:41:17.683Z,3.81
2023-03-22T00:41:27.696Z,3.81
2023-03-22T00:41:37.682Z,3.82
2023-03-22T00:41:47.676Z,3.82
2023-03-22T00:41:57.687Z,3.83
2023-03-22T00:42:07.690Z,3.84
2023-03-22T00:42:17.675Z,3.84
2023-03-22T00:42:27.686Z,3.83
2023-03-22T00:42:37.679Z,3.83
2023-03-22T00:42:47.711Z,3.84
2023-03-22T00:42:57.683Z,3.83
2023-03-22T00:43:07.690Z,3.84
2023-03-22T00:43:17.681Z,3.83
2023-03-22T00:43:27.686Z,3.83
2023-03-22T00:43:37.691Z,3.83
2023-03-22T00:43:47.688Z,3.82
2023-03-22T00:43:57.691Z,3.81
2023-03-22T00:44:07.687Z,3.82
2023-03-22T00:44:17.691Z,3.84
2023-03-22T00:44:27.696Z,3.85
2023-03-22T00:44:37.709Z,3.84
2023-03-22T00:44:47.816Z,3.84
2023-03-22T00:44:57.696Z,3.85
2023-03-22T00:45:07.722Z,3.85
2023-03-22T00:45:17.698Z,3.84
2023-03-22T00:45:27.695Z,3.85
2023-03-22T00:45:37.702Z,3.84
2023-03-22T00:45:47.704Z,3.87
2023-03-22T00:45:57.696Z,3.85
2023-03-22T00:46:07.763Z,3.84
2023-03-22T00:46:17.781Z,3.86
2023-03-22T00:46:27.795Z,3.87
2023-03-22T00:46:37.778Z,3.86
2023-03-22T00:46:47.708Z,3.87
2023-03-22T00:46:57.700Z,3.87
2023-03-22T00:47:07.708Z,3.87
2023-03-22T00:47:17.704Z,3.88
2023-03-22T00:47:27.726Z,3.88
2023-03-22T00:47:37.742Z,3.89
2023-03-22T00:47:47.774Z,3.90
2023-03-22T00:47:57.739Z,3.90
2023-03-22T00:48:07.730Z,3.91
2023-03-22T00:48:17.724Z,3.91
2023-03-22T00:48:27.702Z,3.90
2023-03-22T00:48:37.704Z,3.90
2023-03-22T00:48:47.761Z,3.91
2023-03-22T00:48:57.716Z,3.90
2023-03-22T00:49:07.707Z,3.91
2023-03-22T00:49:17.718Z,3.92
2023-03-22T00:49:27.760Z,3.91
2023-03-22T00:49:37.715Z,3.92
2023-03-22T00:49:47.712Z,3.93
2023-03-22T00:49:57.736Z,3.93
2023-03-22T00:50:07.723Z,3.94
2023-03-22T00:50:17.728Z,3.93
2023-03-22T00:50:27.730Z,3.95
2023-03-22T00:50:38.148Z,3.96
2023-03-22T00:50:47.712Z,3.96
2023-03-22T00:50:57.716Z,3.96
2023-03-22T00:51:07.737Z,3.96
2023-03-22T00:51:17.724Z,3.94
2023-03-22T00:51:27.726Z,3.95
2023-03-22T00:51:37.725Z,3.95
2023-03-22T00:51:47.731Z,3.96
2023-03-22T00:51:57.723Z,3.95
2023-03-22T00:52:07.735Z,3.95
2023-03-22T00:52:17.721Z,3.95
2023-03-22T00:52:27.720Z,3.94
2023-03-22T00:52:37.758Z,3.94
2023-03-22T00:52:47.726Z,3.94
2023-03-22T00:52:57.729Z,3.95
2023-03-22T00:53:07.728Z,3.96
2023-03-22T00:53:17.732Z,3.96
2023-03-22T00:53:27.746Z,3.97
2023-03-22T00:53:38.126Z,3.96
2023-03-22T00:53:47.730Z,3.95
2023-03-22T00:53:57.730Z,3.96
2023-03-22T00:54:07.728Z,3.95
2023-03-22T00:54:17.741Z,3.94
2023-03-22T00:54:27.734Z,3.96
2023-03-22T00:54:37.736Z,3.95
2023-03-22T00:54:47.755Z,3.96
2023-03-22T00:54:57.741Z,3.97
2023-03-22T00:55:07.732Z,3.97
2023-03-22T00:55:17.735Z,3.97
2023-03-22T00:55:27.735Z,3.98
2023-03-22T00:55:37.737Z,3.97
2023-03-22T00:55:47.742Z,3.98
2023-03-22T00:55:57.742Z,3.99
2023-03-22T00:56:07.756Z,3.98
2023-03-22T00:56:17.768Z,3.98
2023-03-22T00:56:27.749Z,3.99
2023-03-22T00:56:37.760Z,3.98
2023-03-22T00:56:47.741Z,3.97
2023-03-22T00:56:57.749Z,3.98
2023-03-22T00:57:07.762Z,3.97
2023-03-22T00:57:17.764Z,3.97
2023-03-22T00:57:27.762Z,3.97
2023-03-22T00:57:37.752Z,3.97
2023-03-22T00:57:47.749Z,3.96
2023-03-22T00:57:57.749Z,3.98
2023-03-22T00:58:07.747Z,3.97
2023-03-22T00:58:17.746Z,3.97
2023-03-22T00:58:27.781Z,3.99
2023-03-22T00:58:37.770Z,4.00
2023-03-22T00:58:47.752Z,3.99
2023-03-22T00:58:57.769Z,4.01
2023-03-22T00:59:07.752Z,4.01
2023-03-22T00:59:17.763Z,3.99
2023-03-22T00:59:27.755Z,3.99
2023-03-22T00:59:37.773Z,3.98
2023-03-22T00:59:47.757Z,3.98
2023-03-22T00:59:57.756Z,3.99
2023-03-22T01:09:33.112Z,3.23
2023-03-22T01:09:43.086Z,3.65
2023-03-22T01:09:53.091Z,3.69
2023-03-22T01:10:03.090Z,3.75
2023-03-22T01:10:13.108Z,3.78
2023-03-22T01:10:23.096Z,3.81
2023-03-22T01:10:33.112Z,3.80
2023-03-22T01:10:43.096Z,3.80
2023-03-22T01:10:53.108Z,3.82
2023-03-22T01:11:03.098Z,3.84
2023-03-22T01:11:13.096Z,3.85
2023-03-22T01:11:23.097Z,3.86
2023-03-22T01:11:33.106Z,3.87
2023-03-22T01:11:43.115Z,3.85
2023-03-22T01:11:53.104Z,3.88
2023-03-22T01:12:03.104Z,3.90
2023-03-22T01:12:13.126Z,3.89
2023-03-22T01:12:23.116Z,3.90
2023-03-22T01:12:33.108Z,3.92
2023-03-22T01:12:43.132Z,3.92
2023-03-22T01:12:53.114Z,3.92
2023-03-22T01:13:03.106Z,3.93
2023-03-22T01:13:13.109Z,3.94
2023-03-22T01:13:23.120Z,3.93
2023-03-22T01:13:33.112Z,3.94
2023-03-22T01:13:43.111Z,3.93
2023-03-22T01:13:53.109Z,3.94
2023-03-22T01:14:03.126Z,3.95
2023-03-22T01:14:13.116Z,3.96
2023-03-22T01:14:23.115Z,3.97
2023-03-22T01:14:33.141Z,3.97
2023-03-22T01:14:43.120Z,3.98
2023-03-22T01:14:53.131Z,3.97
2023-03-22T01:15:03.118Z,3.97
2023-03-22T01:15:13.126Z,4.00
2023-03-22T01:15:23.124Z,4.00
2023-03-22T01:15:33.123Z,4.01
2023-03-22T01:15:43.120Z,4.00
2023-03-22T01:15:53.161Z,3.99
2023-03-22T01:16:03.182Z,3.99
2023-03-22T01:16:13.140Z,3.99
2023-03-22T01:16:23.176Z,3.99
2023-03-22T01:16:33.180Z,3.98
2023-03-22T01:16:43.220Z,3.98
2023-03-22T01:16:53.212Z,3.97
2023-03-22T01:17:03.129Z,3.98
2023-03-22T01:17:13.139Z,3.98
2023-03-22T01:17:23.130Z,3.98
2023-03-22T01:17:33.126Z,3.97
2023-03-22T01:17:43.135Z,3.97
2023-03-22T01:17:53.146Z,3.99
2023-03-22T01:18:03.129Z,3.99
2023-03-22T01:18:13.130Z,3.99
2023-03-22T01:18:23.135Z,3.97
2023-03-22T01:18:33.145Z,3.98
2023-03-22T01:18:43.130Z,3.96
2023-03-22T01:18:53.134Z,3.96
2023-03-22T01:19:03.151Z,3.97
2023-03-22T01:19:13.141Z,3.95
2023-03-22T01:19:23.138Z,3.97
2023-03-22T01:19:33.141Z,3.96
2023-03-22T01:19:43.141Z,3.97
2023-03-22T01:19:53.144Z,3.98
2023-03-22T01:20:03.139Z,3.98
2023-03-22T01:20:13.164Z,3.97
2023-03-22T01:20:23.141Z,3.98
2023-03-22T01:20:33.144Z,3.97
2023-03-22T01:20:43.141Z,3.97
2023-03-22T01:20:53.143Z,3.98
2023-03-22T01:21:03.154Z,3.98
2023-03-22T01:21:13.148Z,3.99
2023-03-22T01:21:23.150Z,3.99
2023-03-22T01:21:33.167Z,3.99
2023-03-22T01:21:43.151Z,4.01
2023-03-22T01:21:53.145Z,4.00
2023-03-22T01:22:03.155Z,4.01
2023-03-22T01:22:13.163Z,4.02
2023-03-22T01:22:23.147Z,4.01
2023-03-22T01:22:33.160Z,4.04
2023-03-22T01:22:43.154Z,4.03
2023-03-22T01:22:53.165Z,4.03
2023-03-22T01:23:03.156Z,4.05
2023-03-22T01:23:13.158Z,4.05
2023-03-22T01:23:23.154Z,4.05
2023-03-22T01:23:33.168Z,4.04
2023-03-22T01:23:43.176Z,4.05
2023-03-22T01:23:53.160Z,4.04
2023-03-22T01:24:03.161Z,4.03
2023-03-22T01:24:13.161Z,4.03
2023-03-22T01:24:23.163Z,4.04
2023-03-22T01:24:33.167Z,4.02
2023-03-22T01:24:43.180Z,4.02
2023-03-22T01:24:53.201Z,4.01
2023-03-22T01:25:03.164Z,4.01
2023-03-22T01:25:13.176Z,4.02
2023-03-22T01:25:23.175Z,4.01
2023-03-22T01:25:33.170Z,4.02
2023-03-22T01:25:43.177Z,4.03
2023-03-22T01:25:53.177Z,4.04
2023-03-22T01:26:03.173Z,4.03
2023-03-22T01:26:13.190Z,4.03
2023-03-22T01:26:23.183Z,4.03
2023-03-22T01:26:33.199Z,4.03
2023-03-22T01:26:43.177Z,4.02
2023-03-22T01:26:53.172Z,4.02
2023-03-22T01:27:03.182Z,4.01
2023-03-22T01:27:13.190Z,4.03
2023-03-22T01:27:23.172Z,4.04
2023-03-22T01:27:33.183Z,4.05
2023-03-22T01:27:43.197Z,4.05
2023-03-22T01:27:53.181Z,4.04
2023-03-22T01:28:03.192Z,4.05
2023-03-22T01:28:13.180Z,4.05
2023-03-22T01:28:25.787Z,4.04
2023-03-22T01:28:33.186Z,4.03
2023-03-22T01:28:43.184Z,4.03
2023-03-22T01:28:53.194Z,4.02
2023-03-22T01:29:03.193Z,4.02
2023-03-22T01:29:13.204Z,4.02
2023-03-22T01:29:23.185Z,4.03
2023-03-22T01:29:33.209Z,4.02
2023-03-22T01:29:43.201Z,4.02
2023-03-22T01:29:53.188Z,4.02
2023-03-22T01:30:03.192Z,4.03
2023-03-22T01:30:13.197Z,4.01
2023-03-22T01:30:23.198Z,4.03
2023-03-22T01:30:33.249Z,4.04
2023-03-22T01:30:43.408Z,4.04
2023-03-22T01:30:53.223Z,4.05
2023-03-22T01:31:03.247Z,4.06
2023-03-22T01:31:13.252Z,4.06
2023-03-22T01:31:23.316Z,4.06
2023-03-22T01:31:33.196Z,4.08
2023-03-22T01:31:43.227Z,4.07
2023-03-22T01:31:53.200Z,4.05
2023-03-22T01:32:03.198Z,4.05
2023-03-22T01:32:13.201Z,4.04
2023-03-22T01:32:23.200Z,4.04
2023-03-22T01:32:33.201Z,4.04
2023-03-22T01:32:43.202Z,4.05
2023-03-22T01:32:53.202Z,4.02
2023-03-22T01:33:03.203Z,4.05
2023-03-22T01:33:13.206Z,4.05
2023-03-22T01:33:23.205Z,4.04
2023-03-22T01:33:33.206Z,4.09
2023-03-22T01:33:43.246Z,4.07
2023-03-22T01:33:53.211Z,4.08
2023-03-22T01:34:03.207Z,4.10
2023-03-22T01:34:13.209Z,4.10
2023-03-22T01:34:23.212Z,4.10
2023-03-22T01:34:33.209Z,4.12
2023-03-22T01:34:43.237Z,4.13
2023-03-22T01:34:53.246Z,4.12
2023-03-22T01:35:03.219Z,4.12
2023-03-22T01:35:13.219Z,4.14
2023-03-22T01:35:23.337Z,4.13
2023-03-22T01:35:33.356Z,4.14
2023-03-22T01:35:43.267Z,4.13
2023-03-22T01:35:53.268Z,4.15
2023-03-22T01:36:03.264Z,4.14
2023-03-22T01:36:13.226Z,4.15
2023-03-22T01:36:23.235Z,4.15
2023-03-22T01:36:33.223Z,4.15
2023-03-22T01:36:43.218Z,4.15
2023-03-22T01:36:53.222Z,4.16
2023-03-22T01:37:03.233Z,4.17
2023-03-22T01:37:13.224Z,4.18
2023-03-22T01:37:23.256Z,4.19
2023-03-22T01:37:33.244Z,4.20
2023-03-22T01:37:43.223Z,4.20
2023-03-22T01:37:53.229Z,4.21
2023-03-22T01:38:03.226Z,4.21
2023-03-22T01:38:13.232Z,4.20
2023-03-22T01:38:23.238Z,4.18
2023-03-22T01:38:33.247Z,4.18
2023-03-22T01:38:43.230Z,4.19
2023-03-22T01:38:53.232Z,4.18
2023-03-22T01:39:03.237Z,4.20
2023-03-22T01:39:13.232Z,4.19
2023-03-22T01:39:23.236Z,4.17
2023-03-22T01:39:33.249Z,4.20
2023-03-22T01:39:43.248Z,4.19
2023-03-22T01:39:53.279Z,4.16
2023-03-22T01:40:03.234Z,4.19
2023-03-22T01:40:13.268Z,4.20
2023-03-22T01:40:23.268Z,4.20
2023-03-22T01:40:33.235Z,4.21
2023-03-22T01:40:43.238Z,4.20
2023-03-22T01:40:53.264Z,4.20
2023-03-22T01:41:03.254Z,4.19
2023-03-22T01:41:13.239Z,4.19
2023-03-22T01:41:23.245Z,4.19
2023-03-22T01:41:33.246Z,4.19
2023-03-22T01:41:43.240Z,4.18
2023-03-22T01:41:53.241Z,4.18
2023-03-22T01:42:03.249Z,4.16
2023-03-22T01:42:13.241Z,4.17
2023-03-22T01:42:23.258Z,4.18
2023-03-22T01:42:33.242Z,4.17
2023-03-22T01:42:43.238Z,4.16
2023-03-22T01:42:53.244Z,4.16
2023-03-22T01:43:03.243Z,4.17
2023-03-22T01:43:13.248Z,4.17
2023-03-22T01:43:23.265Z,4.18
2023-03-22T01:43:33.247Z,4.18
2023-03-22T01:43:43.249Z,4.20
2023-03-22T01:43:53.251Z,4.17
2023-03-22T01:44:03.258Z,4.19
2023-03-22T01:44:13.263Z,4.18
2023-03-22T01:44:23.251Z,4.17
2023-03-22T01:44:33.275Z,4.16
2023-03-22T01:44:43.293Z,4.14
2023-03-22T01:44:53.255Z,4.15
2023-03-22T01:45:03.260Z,4.15
2023-03-22T01:45:13.261Z,4.17
2023-03-22T01:45:23.257Z,4.18
2023-03-22T01:45:33.261Z,4.18
2023-03-22T01:45:43.272Z,4.17
2023-03-22T01:45:53.294Z,4.16
2023-03-22T01:46:03.309Z,4.17
2023-03-22T01:46:13.306Z,4.17
2023-03-22T01:46:23.287Z,4.15
2023-03-22T01:46:33.387Z,4.18
2023-03-22T01:46:43.273Z,4.18
2023-03-22T01:46:53.293Z,4.17
2023-03-22T01:47:03.269Z,4.17
2023-03-22T01:47:13.273Z,4.16
2023-03-22T01:47:23.271Z,4.18
2023-03-22T01:47:33.272Z,4.17
2023-03-22T01:47:43.295Z,4.15
2023-03-22T01:47:53.314Z,4.15
2023-03-22T01:48:03.328Z,4.14
2023-03-22T01:48:13.292Z,4.13
2023-03-22T01:48:23.336Z,4.13
2023-03-22T01:48:33.279Z,4.13
2023-03-22T01:48:43.308Z,4.13
2023-03-22T01:48:53.361Z,4.12
2023-03-22T01:49:03.335Z,4.10
2023-03-22T01:49:13.329Z,4.12
2023-03-22T01:49:23.336Z,4.10
2023-03-22T01:49:33.302Z,4.10
2023-03-22T01:49:43.286Z,4.11
2023-03-22T01:49:53.296Z,4.13
2023-03-22T01:50:03.283Z,4.12
2023-03-22T01:50:13.284Z,4.12
2023-03-22T01:50:23.282Z,4.13
2023-03-22T01:50:33.294Z,4.13
2023-03-22T01:50:43.294Z,4.12
2023-03-22T01:50:53.288Z,4.12
2023-03-22T01:51:03.294Z,4.13
2023-03-22T01:51:13.291Z,4.14
2023-03-22T01:51:23.293Z,4.15
2023-03-22T01:51:33.289Z,4.13
2023-03-22T01:51:43.868Z,4.14
2023-03-22T01:51:53.293Z,4.13
2023-03-22T01:52:03.311Z,4.15
2023-03-22T01:52:13.296Z,4.16
2023-03-22T01:52:23.290Z,4.14
2023-03-22T01:52:33.303Z,4.14
2023-03-22T01:52:43.297Z,4.14
2023-03-22T01:52:53.299Z,4.14
2023-03-22T01:53:03.297Z,4.11
2023-03-22T01:53:13.306Z,4.13
2023-03-22T01:53:23.299Z,4.12
2023-03-22T01:53:33.318Z,4.12
2023-03-22T01:53:43.299Z,4.12
2023-03-22T01:53:53.301Z,4.11
2023-03-22T01:54:03.303Z,4.11
2023-03-22T01:54:13.314Z,4.10
2023-03-22T01:54:23.301Z,4.11
2023-03-22T01:54:33.309Z,4.12
2023-03-22T01:54:43.305Z,4.11
2023-03-22T01:54:53.317Z,4.11
2023-03-22T01:55:03.311Z,4.10
2023-03-22T01:55:13.303Z,4.11
2023-03-22T01:55:23.327Z,4.10
2023-03-22T01:55:33.303Z,4.11
2023-03-22T01:55:43.302Z,4.11
2023-03-22T01:55:53.311Z,4.09
2023-03-22T01:56:03.308Z,4.08
2023-03-22T01:56:13.317Z,4.08
2023-03-22T01:56:23.311Z,4.09
2023-03-22T01:56:33.327Z,4.06
2023-03-22T01:56:43.316Z,4.06
2023-03-22T01:56:53.312Z,4.07
2023-03-22T01:57:03.310Z,4.06
2023-03-22T01:57:13.322Z,4.07
2023-03-22T01:57:23.308Z,4.07
2023-03-22T01:57:33.341Z,4.07
2023-03-22T01:57:43.324Z,4.08
2023-03-22T01:57:53.319Z,4.08
2023-03-22T01:58:03.322Z,4.09
2023-03-22T01:58:13.320Z,4.09
2023-03-22T01:58:23.313Z,4.09
2023-03-22T01:58:33.315Z,4.09
2023-03-22T01:58:43.322Z,4.11
2023-03-22T01:58:53.329Z,4.11
2023-03-22T01:59:03.330Z,4.08
2023-03-22T01:59:13.318Z,4.09
2023-03-22T01:59:23.322Z,4.08
2023-03-22T01:59:33.324Z,4.09
2023-03-22T01:59:43.318Z,4.08
2023-03-22T01:59:53.343Z,4.08
2023-03-22T02:00:03.329Z,4.09
2023-03-22T02:00:13.323Z,4.11
2023-03-22T02:00:23.321Z,4.10
2023-03-22T02:00:33.339Z,4.10
2023-03-22T02:00:43.322Z,4.11
2023-03-22T02:00:53.335Z,4.12
2023-03-22T02:01:03.342Z,4.14
2023-03-22T02:01:13.337Z,4.12
2023-03-22T02:01:23.409Z,4.14
2023-03-22T02:01:33.403Z,4.15
2023-03-22T02:01:43.380Z,4.13
2023-03-22T02:01:53.344Z,4.15
2023-03-22T02:02:03.332Z,4.14
2023-03-22T02:02:13.326Z,4.14
2023-03-22T02:02:23.345Z,4.14
2023-03-22T02:02:33.372Z,4.15
2023-03-22T02:02:43.399Z,4.14
2023-03-22T02:02:53.430Z,4.14
2023-03-22T02:03:03.392Z,4.13
2023-03-22T02:03:13.333Z,4.14
2023-03-22T02:03:23.333Z,4.15
2023-03-22T02:03:33.339Z,4.13
2023-03-22T02:03:43.331Z,4.14
2023-03-22T02:03:53.342Z,4.13
2023-03-22T02:04:03.349Z,4.13
2023-03-22T02:04:13.346Z,4.13
2023-03-22T02:04:23.344Z,4.14
2023-03-22T02:04:33.337Z,4.14
2023-03-22T02:04:43.340Z,4.13
2023-03-22T02:04:53.358Z,4.13
2023-03-22T02:05:03.346Z,4.15
2023-03-22T02:05:13.347Z,4.14
2023-03-22T02:05:23.348Z,4.15
2023-03-22T02:05:33.345Z,4.15
2023-03-22T02:05:43.363Z,4.15
2023-03-22T02:05:53.345Z,4.16
2023-03-22T02:06:03.345Z,4.16
2023-03-22T02:06:13.345Z,4.16
2023-03-22T02:06:23.344Z,4.18
2023-03-22T02:06:33.350Z,4.19
2023-03-22T02:06:43.342Z,4.19
2023-03-22T02:06:53.345Z,4.19
2023-03-22T02:07:03.359Z,4.19
2023-03-22T02:07:13.355Z,4.19
2023-03-22T02:07:23.349Z,4.20
2023-03-22T02:07:33.374Z,4.20
2023-03-22T02:07:43.358Z,4.20
2023-03-22T02:07:53.350Z,4.18
2023-03-22T02:08:03.355Z,4.18
2023-03-22T02:08:13.351Z,4.17
2023-03-22T02:08:23.353Z,4.16
2023-03-22T02:08:33.358Z,4.17
2023-03-22T02:08:43.354Z,4.15
2023-03-22T02:08:53.358Z,4.17
2023-03-22T02:09:03.365Z,4.16
2023-03-22T02:09:13.363Z,4.15
2023-03-22T02:09:23.359Z,4.15
2023-03-22T02:09:33.375Z,4.15
2023-03-22T02:09:43.443Z,4.16
2023-03-22T02:09:53.391Z,4.16
2023-03-22T02:10:03.367Z,4.15
2023-03-22T02:10:13.378Z,4.15
2023-03-22T02:10:23.362Z,4.14
2023-03-22T02:10:33.369Z,4.13
2023-03-22T02:10:43.372Z,4.13
2023-03-22T02:10:53.396Z,4.15
2023-03-22T02:11:03.367Z,4.14
2023-03-22T02:11:13.365Z,4.16
2023-03-22T02:11:23.366Z,4.15
2023-03-22T02:11:33.368Z,4.19
2023-03-22T02:11:43.393Z,4.19
2023-03-22T02:11:53.380Z,4.19
2023-03-22T02:12:03.370Z,4.18
2023-03-22T02:12:13.408Z,4.18
2023-03-22T02:12:23.370Z,4.17
2023-03-22T02:12:33.384Z,4.18
2023-03-22T02:12:43.374Z,4.18
2023-03-22T02:12:53.372Z,4.18
2023-03-22T02:13:03.380Z,4.19
2023-03-22T02:13:13.401Z,4.21
2023-03-22T02:13:23.375Z,4.21
2023-03-22T02:13:33.374Z,4.20
2023-03-22T02:13:43.382Z,4.22
2023-03-22T02:13:53.400Z,4.22
2023-03-22T02:14:03.390Z,4.21
2023-03-22T02:14:13.381Z,4.22
2023-03-22T02:14:23.771Z,4.21
2023-03-22T02:14:33.379Z,4.21
2023-03-22T02:14:43.394Z,4.22
2023-03-22T02:14:53.382Z,4.22
2023-03-22T02:15:03.390Z,4.23
2023-03-22T02:15:13.384Z,4.23
2023-03-22T02:15:23.385Z,4.23
2023-03-22T02:15:33.430Z,4.23
2023-03-22T02:15:43.518Z,4.23
2023-03-22T02:15:53.423Z,4.23
2023-03-22T02:16:03.469Z,4.23
2023-03-22T02:16:13.483Z,4.23
2023-03-22T02:16:23.386Z,4.24
2023-03-22T02:16:33.390Z,4.22
2023-03-22T02:16:43.398Z,4.22
2023-03-22T02:16:53.397Z,4.25
2023-03-22T02:17:03.389Z,4.26
2023-03-22T02:17:13.426Z,4.26
2023-03-22T02:17:23.401Z,4.26
2023-03-22T02:17:33.400Z,4.26
2023-03-22T02:17:43.394Z,4.26
2023-03-22T02:17:53.393Z,4.27
2023-03-22T02:18:03.417Z,4.27
2023-03-22T02:18:13.396Z,4.28
2023-03-22T02:18:23.394Z,4.30
2023-03-22T02:18:33.397Z,4.30
2023-03-22T02:18:43.399Z,4.29
2023-03-22T02:18:53.402Z,4.31
2023-03-22T02:19:03.396Z,4.30
2023-03-22T02:19:13.421Z,4.27
2023-03-22T02:19:23.395Z,4.28
2023-03-22T02:19:33.405Z,4.27
2023-03-22T02:19:43.400Z,4.27
2023-03-22T02:19:53.401Z,4.28
2023-03-22T02:20:03.424Z,4.27
2023-03-22T02:20:13.432Z,4.28
2023-03-22T02:20:23.404Z,4.27
2023-03-22T02:20:33.411Z,4.28
2023-03-22T02:20:43.411Z,4.27
2023-03-22T02:20:53.403Z,4.29
2023-03-22T02:21:03.398Z,4.29
2023-03-22T02:21:13.432Z,4.30
2023-03-22T02:21:23.413Z,4.29
2023-03-22T02:21:33.414Z,4.26
2023-03-22T02:21:43.412Z,4.26
2023-03-22T02:21:53.411Z,4.26
2023-03-22T02:22:03.409Z,4.23
2023-03-22T02:22:13.411Z,4.25
2023-03-22T02:22:23.411Z,4.26
2023-03-22T02:22:33.424Z,4.25